Ask Your Question

LibreTraining's profile - karma

LibreTraining's karma change log

15 0 LO Writer: images do not export to pdf ( 2019-09-16 00:55:59 +0200 )

15 0 Can't select second column in two-column section? ( 2019-07-28 19:27:58 +0200 )

0 -15 Can't select second column in two-column section? ( 2019-07-28 19:27:55 +0200 )

15 0 Can't select second column in two-column section? ( 2019-07-28 19:27:53 +0200 )

0 -15 Can't select second column in two-column section? ( 2019-07-28 19:27:52 +0200 )

0 -10 Can't select second column in two-column section? ( 2019-07-28 19:27:52 +0200 )

15 0 Can't select second column in two-column section? ( 2019-07-28 19:26:39 +0200 )

10 0 when exporting a writer document to PDF, bold type is reverted to normal ( 2019-06-21 12:04:45 +0200 )

15 0 when exporting a writer document to PDF, bold type is reverted to normal ( 2019-06-21 11:54:10 +0200 )

10 0 when exporting a writer document to PDF, bold type is reverted to normal ( 2019-06-20 23:20:28 +0200 )

15 0 New font not showing in Writer ( 2019-04-06 08:32:37 +0200 )

10 0 Entering a ⬛ changing the font on that line. ( 2019-04-01 23:40:16 +0200 )

10 0 selctn box expands WHERE EVER I clk, Whatz.up? ( 2019-03-14 16:01:19 +0200 )

0 -10 selctn box expands WHERE EVER I clk, Whatz.up? ( 2019-03-14 16:01:17 +0200 )

15 0 Are there any Windows computers on which anti-aliasing works with OpenGL? ( 2019-02-27 06:03:26 +0200 )

15 0 Table of Contents but with line spacing ( 2019-02-14 21:18:16 +0200 )

15 0 Impress not displaying fonts correctly ( 2019-02-04 00:38:54 +0200 )

10 0 Adding multiple fields in a header (in LO writer) ( 2019-01-23 15:47:10 +0200 )

10 0 writer - copy keyboard shortcuts to other computer ( 2019-01-03 08:27:50 +0200 )

15 0 writer - copy keyboard shortcuts to other computer ( 2019-01-03 00:41:42 +0200 )

0 -15 writer - copy keyboard shortcuts to other computer ( 2019-01-03 00:41:39 +0200 )

15 0 writer - copy keyboard shortcuts to other computer ( 2019-01-03 00:41:38 +0200 )

15 0 What is the "UI render"? ( 2019-01-02 21:57:47 +0200 )

10 0 LO 6.1 writer delete a style and identify impact text ( 2018-12-13 19:06:32 +0200 )

10 0 How do I insert a single landscape page? ( 2018-12-08 12:09:21 +0200 )

0 -10 How do I insert a single landscape page? ( 2018-12-08 01:41:39 +0200 )

10 0 How do I insert a single landscape page? ( 2018-12-08 01:41:37 +0200 )

0 -10 How do I insert a single landscape page? ( 2018-12-08 01:41:36 +0200 )

0 -15 How do I insert a single landscape page? ( 2018-12-08 01:40:45 +0200 )

15 0 How do I insert a single landscape page? ( 2018-12-08 01:40:43 +0200 )

0 -15 How do I insert a single landscape page? ( 2018-12-08 01:40:42 +0200 )

10 0 How do I insert a single landscape page? ( 2018-12-08 01:40:41 +0200 )

15 0 How do I insert a single landscape page? ( 2018-12-08 01:30:30 +0200 )

10 0 Modify footnote number size within "actual footnote"?? ( 2018-11-26 05:26:27 +0200 )

15 0 Modify footnote number size within "actual footnote"?? ( 2018-11-26 05:26:25 +0200 )

10 0 What exactly is "CMIS Properties"? ( 2018-11-21 00:11:28 +0200 )

10 0 fonts missing in Libre Office Calc 6.1.2.1 (x64) after update on Windows ( 2018-11-14 10:45:00 +0200 )

15 0 fonts missing in Libre Office Calc 6.1.2.1 (x64) after update on Windows ( 2018-11-14 07:27:56 +0200 )

0 -2 Why can't I install Libre Office 5.0.5 on Windows 10? ( 2018-11-10 19:59:26 +0200 )

0 -2 I want to download office libre. I cannot make a donation today. When i press download I am directed to the donations page and cannot get past it. Is it still free? What can i do? ( 2018-11-10 19:58:54 +0200 )

0 -2 Which Operating System Do I Choose To Download New Version of LibreOffice? ( 2018-11-10 19:58:25 +0200 )

0 -2 Can I install Libreoffice 5.2 onto a Raspberry Pi? There doesn't seem to be any archives or repositories with the binaries available for ARM. Do I really have no alternative but to compile it from source? ( 2018-11-10 19:57:48 +0200 )

0 -2 Downloaded - how to install? ( 2018-11-10 19:57:07 +0200 )

0 -2 I tried to install Libreoffice but the wizards in Russian. WTF ? ( 2018-11-10 19:56:29 +0200 )

10 0 Writer uses 100% cpu for documents created from a particular template ( 2018-10-21 23:31:27 +0200 )

15 0 Zotero extension for LibreOffice - not there ( 2018-10-21 22:29:25 +0200 )

10 0 Why is LibreOffice taking up 67.2 GB of my storage space? ( 2018-10-13 09:50:38 +0200 )

10 0 What's the base unit for LibreOffice Writer? ( 2018-10-12 20:37:36 +0200 )

0 -2 How to save file so it's compatible on Mac, Linux and Windows? ( 2018-09-28 14:52:13 +0200 )

10 0 Going back to a previous version ( 2018-09-24 09:32:16 +0200 )

0 -15 Can't select second column in two-column section? ( 2018-09-23 16:08:32 +0200 )

15 0 Can't select second column in two-column section? ( 2018-09-23 10:04:53 +0200 )

10 0 Can't select second column in two-column section? ( 2018-09-23 10:04:52 +0200 )

10 0 Going back to a previous version ( 2018-09-22 22:37:41 +0200 )

10 0 Writer: Additional Languages for Spellcheck ( 2018-09-22 22:06:08 +0200 )

15 0 Going back to a previous version ( 2018-09-22 21:53:54 +0200 )

15 0 Ability to have smart quotes and similar auto-formatting disabled in a style ( 2018-09-12 16:57:17 +0200 )

10 0 Ability to have smart quotes and similar auto-formatting disabled in a style ( 2018-09-12 08:02:07 +0200 )

0 10 After upgrading to Ubuntu 18.04 most english fonts were removed. ( 2018-08-31 18:34:36 +0200 )

0 -2 I am new to libre; how do i insert or remove watermark from libreoffice writer document ( 2018-08-16 19:08:36 +0200 )

15 0 Are there envelope templates for writer 6.0 or an easy way to print on an envelope? ( 2018-07-20 14:43:57 +0200 )

10 0 Fonts clarity grey in LO vs MsWord 2016 ( 2018-07-20 11:37:25 +0200 )

0 10 Calc: AutoCorrect and fractions ( 2018-07-14 17:51:47 +0200 )

15 0 double harpoon arrow for type chemistry ( 2018-07-12 16:15:50 +0200 )

10 0 double harpoon arrow for type chemistry ( 2018-07-12 09:42:52 +0200 )

10 0 double harpoon arrow for type chemistry ( 2018-07-12 06:06:28 +0200 )

15 0 convert impress presentation to video ( 2018-07-08 19:47:08 +0200 )

15 0 How do I open documents in a standard 125% zoom? ( 2018-07-06 20:35:20 +0200 )

10 0 Can Header on different pages be different? Can footnotes start anew from 1 in several chapters within a single file? ( 2018-07-04 22:23:16 +0200 )

10 0 Will LibreOffice allow me to view Word documents? ( 2018-07-01 08:50:21 +0200 )

10 0 LibreOffice Portable File Association Problem ( 2018-06-25 12:56:29 +0200 )

0 -15 LibreOffice Portable File Association Problem ( 2018-06-25 12:06:00 +0200 )

15 0 LibreOffice Portable File Association Problem ( 2018-06-25 12:05:58 +0200 )

15 0 "Press Quality" for Export as PDF in Writer ( 2018-06-22 16:26:46 +0200 )

0 -15 "Press Quality" for Export as PDF in Writer ( 2018-06-22 16:26:36 +0200 )

15 0 "Press Quality" for Export as PDF in Writer ( 2018-06-22 16:26:01 +0200 )

15 0 How to define space between numbering item and word ( 2018-06-22 10:40:03 +0200 )

0 -15 How to define space between numbering item and word ( 2018-06-22 10:39:59 +0200 )

15 0 How to define space between numbering item and word ( 2018-06-22 10:39:56 +0200 )

10 0 Distracting kerning in LibreOffice 6 on Win10 ( 2018-06-22 09:50:12 +0200 )

10 0 "Press Quality" for Export as PDF in Writer ( 2018-06-22 08:24:53 +0200 )

10 0 "Press Quality" for Export as PDF in Writer ( 2018-06-22 03:52:53 +0200 )

10 0 Why the "Century Schoolbook L Italic" font looks like this in libreoffice 5 and 6? ( 2018-06-19 04:38:33 +0200 )

10 0 SOLVED: How can I get the formula editor to stop cutting off the top of the font? ( 2018-06-17 10:19:50 +0200 )

0 -15 SOLVED: How can I get the formula editor to stop cutting off the top of the font? ( 2018-06-17 00:54:37 +0200 )

15 0 SOLVED: How can I get the formula editor to stop cutting off the top of the font? ( 2018-06-17 00:54:33 +0200 )

0 -2 Error when installing new extension ( 2018-06-09 19:29:55 +0200 )

10 0 selctn box expands WHERE EVER I clk, Whatz.up? ( 2018-06-07 20:52:01 +0200 )

10 0 Writer: How to align a fraction with text ( 2018-05-27 09:58:24 +0200 )

15 0 Math: How can I change libreoffice math command font? ( 2018-05-21 23:25:28 +0200 )

0 -15 Math: How can I change libreoffice math command font? ( 2018-05-21 23:25:19 +0200 )

15 0 Math: How can I change libreoffice math command font? ( 2018-05-21 23:25:18 +0200 )

15 0 iOS version ( 2018-05-12 10:16:07 +0200 )

10 0 Is there a shortcut to save document in PDF format? ( 2018-05-10 10:07:36 +0200 )

10 0 iOS version ( 2018-05-10 03:18:28 +0200 )

15 0 No certificate visible for signing PDF ( 2018-05-07 23:15:07 +0200 )

0 -15 No certificate visible for signing PDF ( 2018-05-07 23:15:07 +0200 )

15 0 No certificate visible for signing PDF ( 2018-05-07 23:15:07 +0200 )

0 -15 No certificate visible for signing PDF ( 2018-05-07 23:15:07 +0200 )

15 0 No certificate visible for signing PDF ( 2018-05-07 23:15:06 +0200 )